createdAt,value
2018-04-22T00:00:46.339Z,14.40
2018-04-22T00:01:49.607Z,14.25
2018-04-22T00:02:52.850Z,13.38
2018-04-22T00:03:55.367Z,13.32
2018-04-22T00:04:58.606Z,13.50
2018-04-22T00:06:01.076Z,13.20
2018-04-22T00:07:03.562Z,13.32
2018-04-22T00:08:06.032Z,14.25
2018-04-22T00:09:09.293Z,13.95
2018-04-22T00:10:11.772Z,14.50
2018-04-22T00:11:15.020Z,14.52
2018-04-22T00:12:17.536Z,14.32
2018-04-22T00:13:20.775Z,14.35
2018-04-22T00:14:23.281Z,15.20
2018-04-22T00:15:26.527Z,13.88
2018-04-22T00:16:29.011Z,14.87
2018-04-22T00:17:31.481Z,14.57
2018-04-22T00:18:33.956Z,13.18
2018-04-22T00:19:37.212Z,14.25
2018-04-22T00:20:39.683Z,14.32
2018-04-22T00:21:42.175Z,14.43
2018-04-22T00:22:45.440Z,14.23
2018-04-22T00:23:47.915Z,13.30
2018-04-22T00:24:51.172Z,13.57
2018-04-22T00:25:53.783Z,14.15
2018-04-22T00:26:56.251Z,13.85
2018-04-22T00:27:58.721Z,13.20
2018-04-22T00:29:01.195Z,14.20
2018-04-22T00:30:03.680Z,15.90
2018-04-22T00:31:06.167Z,15.05
2018-04-22T00:32:08.643Z,14.80
2018-04-22T00:33:11.120Z,13.55
2018-04-22T00:34:14.366Z,13.48
2018-04-22T00:35:16.859Z,14.55
2018-04-22T00:36:19.332Z,13.50
2018-04-22T00:37:22.580Z,14.70
2018-04-22T00:38:25.065Z,13.23
2018-04-22T00:39:27.543Z,13.32
2018-04-22T00:40:30.803Z,13.13
2018-04-22T00:41:33.299Z,13.60
2018-04-22T00:42:36.542Z,13.73
2018-04-22T00:43:39.016Z,13.57
2018-04-22T00:44:41.487Z,13.75
2018-04-22T00:45:45.483Z,13.10
2018-04-22T00:46:47.956Z,13.60
2018-04-22T00:47:51.200Z,13.57
2018-04-22T00:48:53.667Z,13.15
2018-04-22T00:49:56.143Z,13.40
2018-04-22T00:50:58.940Z,14.40
2018-04-22T00:52:01.412Z,13.93
2018-04-22T00:53:04.669Z,14.63
2018-04-22T00:54:18.955Z,13.18
2018-04-22T00:55:21.429Z,13.93
2018-04-22T00:56:23.919Z,13.77
2018-04-22T00:57:26.396Z,14.60
2018-04-22T00:58:29.212Z,13.98
2018-04-22T00:59:32.471Z,14.15
2018-04-22T01:00:34.943Z,14.07
2018-04-22T01:01:37.442Z,13.93
2018-04-22T01:02:40.004Z,13.27
2018-04-22T01:03:42.483Z,14.10
2018-04-22T01:04:44.957Z,13.95
2018-04-22T01:05:47.427Z,14.18
2018-04-22T01:06:49.933Z,12.90
2018-04-22T01:07:53.167Z,13.95
2018-04-22T01:08:55.644Z,13.65
2018-04-22T01:09:58.114Z,13.88
2018-04-22T01:11:00.583Z,13.98
2018-04-22T01:12:03.091Z,13.75
2018-04-22T01:13:05.659Z,13.57
2018-04-22T01:14:08.931Z,14.27
2018-04-22T01:15:12.216Z,15.43
2018-04-22T01:16:15.892Z,14.93
2018-04-22T01:17:18.383Z,15.70
2018-04-22T01:18:21.620Z,14.82
2018-04-22T01:19:24.094Z,14.70
2018-04-22T01:20:26.676Z,14.95
2018-04-22T01:21:29.994Z,15.45
2018-04-22T01:22:32.484Z,14.27
2018-04-22T01:23:34.960Z,14.98
2018-04-22T01:24:37.439Z,14.82
2018-04-22T01:25:39.922Z,13.65
2018-04-22T01:26:43.163Z,13.55
2018-04-22T01:27:45.668Z,13.68
2018-04-22T01:28:48.915Z,13.73
2018-04-22T01:29:51.392Z,13.52
2018-04-22T01:30:53.876Z,13.43
2018-04-22T01:31:57.857Z,13.23
2018-04-22T01:33:00.356Z,13.55
2018-04-22T01:34:03.602Z,13.77
2018-04-22T01:35:06.067Z,13.23
2018-04-22T01:36:08.539Z,14.05
2018-04-22T01:37:11.016Z,13.57
2018-04-22T01:38:13.516Z,13.48
2018-04-22T01:39:16.008Z,12.68
2018-04-22T01:40:18.480Z,14.25
2018-04-22T01:41:20.952Z,13.30
2018-04-22T01:42:23.425Z,13.30
2018-04-22T01:43:25.916Z,13.80
2018-04-22T01:44:29.155Z,13.35
2018-04-22T01:45:31.634Z,13.25
2018-04-22T01:46:34.105Z,13.18
2018-04-22T01:47:36.591Z,13.27
2018-04-22T01:48:39.858Z,13.82
2018-04-22T01:49:42.333Z,14.38
2018-04-22T01:50:45.584Z,13.35
2018-04-22T01:51:48.062Z,13.05
2018-04-22T01:52:50.544Z,12.88
2018-04-22T01:53:53.804Z,13.55
2018-04-22T01:54:56.276Z,13.35
2018-04-22T01:55:58.806Z,13.02
2018-04-22T01:57:01.284Z,13.55
2018-04-22T01:58:03.755Z,13.25
2018-04-22T01:59:06.254Z,13.25
2018-04-22T02:00:09.498Z,13.15
2018-04-22T02:01:11.972Z,13.27
2018-04-22T02:02:14.446Z,12.20
2018-04-22T02:03:16.921Z,12.95
2018-04-22T02:04:19.412Z,13.10
2018-04-22T02:05:22.652Z,12.65
2018-04-22T02:06:25.127Z,12.98
2018-04-22T02:07:27.596Z,13.25
2018-04-22T02:08:30.077Z,12.00
2018-04-22T02:09:32.624Z,12.90
2018-04-22T02:10:35.092Z,12.88
2018-04-22T02:11:37.569Z,12.37
2018-04-22T02:12:40.808Z,13.20
2018-04-22T02:13:43.284Z,12.43
2018-04-22T02:14:45.788Z,12.48
2018-04-22T02:15:49.025Z,12.75
2018-04-22T02:16:51.496Z,13.00
2018-04-22T02:17:53.999Z,12.20
2018-04-22T02:18:57.248Z,12.70
2018-04-22T02:19:59.732Z,12.65
2018-04-22T02:21:03.708Z,13.20
2018-04-22T02:22:06.183Z,12.77
2018-04-22T02:23:08.653Z,13.05
2018-04-22T02:24:11.137Z,12.32
2018-04-22T02:25:14.403Z,12.07
2018-04-22T02:26:16.878Z,12.82
2018-04-22T02:27:20.116Z,12.77
2018-04-22T02:28:22.584Z,12.90
2018-04-22T02:29:25.072Z,13.18
2018-04-22T02:30:27.568Z,12.32
2018-04-22T02:31:30.806Z,12.57
2018-04-22T02:32:33.277Z,12.98
2018-04-22T02:33:35.755Z,12.63
2018-04-22T02:34:38.995Z,12.70
2018-04-22T02:35:41.811Z,12.77
2018-04-22T02:36:45.103Z,12.00
2018-04-22T02:37:48.344Z,12.35
2018-04-22T02:38:50.830Z,11.77
2018-04-22T02:39:53.304Z,12.23
2018-04-22T02:40:55.799Z,12.65
2018-04-22T02:41:59.036Z,12.52
2018-04-22T02:43:01.505Z,12.00
2018-04-22T02:44:03.980Z,12.40
2018-04-22T02:45:06.455Z,12.07
2018-04-22T02:46:09.716Z,12.18
2018-04-22T02:47:12.193Z,12.23
2018-04-22T02:48:14.680Z,12.40
2018-04-22T02:49:18.176Z,11.45
2018-04-22T02:50:21.408Z,12.20
2018-04-22T02:51:24.203Z,12.00
2018-04-22T02:52:26.708Z,12.63
2018-04-22T02:53:29.200Z,12.50
2018-04-22T02:54:31.671Z,12.90
2018-04-22T02:55:34.156Z,12.30
2018-04-22T02:56:38.148Z,12.30
2018-04-22T02:57:40.623Z,12.50
2018-04-22T02:58:44.604Z,11.85
2018-04-22T02:59:47.095Z,12.75
2018-04-22T03:00:49.564Z,12.32
2018-04-22T03:01:52.821Z,12.20
2018-04-22T03:02:55.291Z,12.65
2018-04-22T03:03:57.794Z,12.30
2018-04-22T03:05:01.024Z,12.93
2018-04-22T03:06:03.496Z,12.95
2018-04-22T03:07:05.995Z,12.02
2018-04-22T03:08:09.240Z,11.93
2018-04-22T03:09:11.727Z,12.52
2018-04-22T03:10:14.964Z,12.23
2018-04-22T03:11:17.436Z,12.07
2018-04-22T03:12:19.932Z,12.60
2018-04-22T03:13:23.912Z,13.20
2018-04-22T03:14:26.387Z,13.00
2018-04-22T03:15:28.859Z,13.15
2018-04-22T03:16:31.332Z,12.70
2018-04-22T03:17:33.857Z,12.90
2018-04-22T03:18:36.353Z,13.00
2018-04-22T03:19:39.595Z,12.55
2018-04-22T03:20:42.064Z,12.32
2018-04-22T03:21:44.535Z,13.00
2018-04-22T03:22:47.040Z,13.15
2018-04-22T03:23:50.275Z,13.00
2018-04-22T03:24:52.743Z,12.63
2018-04-22T03:25:55.220Z,11.98
2018-04-22T03:26:57.704Z,12.82
2018-04-22T03:28:00.217Z,12.90
2018-04-22T03:29:02.688Z,12.70
2018-04-22T03:30:05.203Z,12.85
2018-04-22T03:31:07.672Z,12.70
2018-04-22T03:32:10.916Z,13.15
2018-04-22T03:33:13.420Z,13.55
2018-04-22T03:34:17.412Z,12.95
2018-04-22T03:35:19.879Z,12.65
2018-04-22T03:36:22.348Z,12.98
2018-04-22T03:37:25.596Z,13.02
2018-04-22T03:38:28.099Z,12.50
2018-04-22T03:39:32.076Z,13.13
2018-04-22T03:40:34.555Z,12.45
2018-04-22T03:41:37.020Z,12.40
2018-04-22T03:42:39.492Z,12.93
2018-04-22T03:43:42.764Z,12.75
2018-04-22T03:44:45.232Z,12.77
2018-04-22T03:45:47.700Z,12.63
2018-04-22T03:46:50.936Z,12.65
2018-04-22T03:47:53.412Z,12.45
2018-04-22T03:48:55.910Z,12.43
2018-04-22T03:49:59.888Z,12.90
2018-04-22T03:51:02.372Z,12.98
2018-04-22T03:52:05.640Z,12.63
2018-04-22T03:53:08.119Z,13.50
2018-04-22T03:54:10.608Z,12.15
2018-04-22T03:55:13.845Z,12.98
2018-04-22T03:56:16.356Z,13.00
2018-04-22T03:57:18.824Z,13.30
2018-04-22T03:58:21.337Z,13.07
2018-04-22T03:59:23.824Z,12.90
2018-04-22T04:00:27.072Z,12.68
2018-04-22T04:01:29.544Z,12.93
2018-04-22T04:02:32.012Z,13.20
2018-04-22T04:03:34.485Z,12.88
2018-04-22T04:04:36.980Z,12.07
2018-04-22T04:05:40.232Z,12.32
2018-04-22T04:06:42.707Z,14.10
2018-04-22T04:07:45.948Z,12.20
2018-04-22T04:08:48.449Z,13.10
2018-04-22T04:09:50.977Z,12.75
2018-04-22T04:10:53.460Z,12.73
2018-04-22T04:11:55.940Z,13.38
2018-04-22T04:12:58.416Z,13.82
2018-04-22T04:14:00.891Z,13.00
2018-04-22T04:15:04.146Z,12.13
2018-04-22T04:16:06.615Z,12.63
2018-04-22T04:17:09.109Z,12.85
2018-04-22T04:20:09.788Z,13.20
2018-04-22T04:21:24.181Z,13.13
2018-04-22T04:25:54.379Z,13.20
2018-04-22T04:27:18.597Z,12.60
2018-04-22T04:28:21.836Z,12.32
2018-04-22T04:29:24.304Z,13.07
2018-04-22T04:30:26.776Z,13.40
2018-04-22T04:31:29.284Z,13.52
2018-04-22T04:32:32.522Z,12.57
2018-04-22T04:33:34.996Z,13.50
2018-04-22T04:34:37.509Z,13.00
2018-04-22T04:35:39.983Z,13.48
2018-04-22T04:36:42.471Z,13.18
2018-04-22T04:37:44.948Z,13.43
2018-04-22T04:38:47.433Z,13.65
2018-04-22T04:39:49.905Z,13.80
2018-04-22T04:40:52.392Z,13.52
2018-04-22T04:41:55.644Z,13.60
2018-04-22T04:42:58.116Z,14.32
2018-04-22T04:44:01.359Z,13.77
2018-04-22T04:45:03.844Z,12.73
2018-04-22T04:46:06.327Z,13.07
2018-04-22T04:47:10.328Z,13.93
2018-04-22T04:48:12.830Z,13.30
2018-04-22T04:49:15.304Z,13.35
2018-04-22T04:50:17.784Z,13.62
2018-04-22T04:51:20.262Z,13.77
2018-04-22T04:52:22.751Z,13.57
2018-04-22T04:53:25.224Z,14.18
2018-04-22T04:54:28.467Z,13.15
2018-04-22T04:55:30.942Z,12.80
2018-04-22T04:56:33.427Z,13.00
2018-04-22T04:57:36.685Z,13.68
2018-04-22T04:58:39.542Z,13.50
2018-04-22T04:59:42.023Z,14.35
2018-04-22T05:00:44.499Z,13.02
2018-04-22T05:01:46.982Z,14.18
2018-04-22T05:02:50.241Z,13.50
2018-04-22T05:03:52.712Z,14.00
2018-04-22T05:04:55.187Z,12.85
2018-04-22T05:05:57.675Z,13.77
2018-04-22T05:07:00.917Z,14.13
2018-04-22T05:08:03.728Z,13.57
2018-04-22T05:09:06.968Z,13.38
2018-04-22T05:10:09.444Z,13.82
2018-04-22T05:11:12.688Z,13.25
2018-04-22T05:12:15.168Z,13.68
2018-04-22T05:13:17.669Z,13.52
2018-04-22T05:14:21.687Z,13.02
2018-04-22T05:15:24.933Z,13.35
2018-04-22T05:16:27.401Z,14.07
2018-04-22T05:17:29.876Z,13.77
2018-04-22T05:18:33.900Z,13.00
2018-04-22T05:19:37.136Z,13.57
2018-04-22T05:20:39.612Z,13.65
2018-04-22T05:21:42.089Z,13.73
2018-04-22T05:22:45.324Z,12.48
2018-04-22T05:23:47.831Z,12.50
2018-04-22T05:24:51.815Z,13.82
2018-04-22T05:25:54.291Z,13.35
2018-04-22T05:26:56.764Z,13.82
2018-04-22T05:28:00.743Z,14.20
2018-04-22T05:29:03.234Z,13.93
2018-04-22T05:30:06.468Z,13.88
2018-04-22T05:31:08.984Z,13.50
2018-04-22T05:32:11.447Z,13.93
2018-04-22T05:33:14.679Z,14.25
2018-04-22T05:34:17.180Z,13.82
2018-04-22T05:35:19.664Z,13.13
2018-04-22T05:36:22.900Z,12.63
2018-04-22T05:37:25.378Z,13.73
2018-04-22T05:38:27.848Z,14.50
2018-04-22T05:39:30.340Z,13.85
2018-04-22T05:40:33.577Z,13.48
2018-04-22T05:41:36.052Z,13.80
2018-04-22T05:42:38.523Z,13.82
2018-04-22T05:43:41.792Z,13.93
2018-04-22T05:44:44.346Z,14.60
2018-04-22T05:45:46.823Z,13.70
2018-04-22T05:46:49.299Z,13.95
2018-04-22T05:47:51.775Z,14.60
2018-04-22T05:48:54.254Z,14.05
2018-04-22T05:49:56.772Z,14.15
2018-04-22T05:50:59.271Z,14.32
2018-04-22T05:52:01.740Z,15.35
2018-04-22T05:53:04.988Z,13.45
2018-04-22T05:54:07.464Z,13.65
2018-04-22T05:55:09.957Z,14.15
2018-04-22T05:56:13.939Z,15.52
2018-04-22T05:57:16.415Z,14.48
2018-04-22T05:58:20.147Z,13.95
2018-04-22T05:59:22.624Z,13.43
2018-04-22T06:00:25.120Z,13.35
2018-04-22T06:01:27.591Z,13.90
2018-04-22T06:02:30.064Z,14.48
2018-04-22T06:03:32.532Z,14.15
2018-04-22T06:04:36.516Z,13.93
2018-04-22T06:05:39.143Z,14.45
2018-04-22T06:06:41.612Z,14.07
2018-04-22T06:07:44.084Z,14.18
2018-04-22T06:08:46.560Z,14.82
2018-04-22T06:09:49.086Z,14.87
2018-04-22T06:10:52.360Z,14.93
2018-04-22T06:11:55.598Z,14.63
2018-04-22T06:12:58.080Z,14.35
2018-04-22T06:14:00.552Z,13.95
2018-04-22T06:15:03.024Z,14.35
2018-04-22T06:16:06.307Z,14.75
2018-04-22T06:17:09.553Z,14.40
2018-04-22T06:18:12.036Z,14.35
2018-04-22T06:19:14.508Z,14.13
2018-04-22T06:20:16.981Z,14.32
2018-04-22T06:21:20.236Z,14.38
2018-04-22T06:22:22.709Z,15.05
2018-04-22T06:23:25.183Z,14.15
2018-04-22T06:24:27.663Z,14.15
2018-04-22T06:25:30.900Z,14.13
2018-04-22T06:26:33.438Z,13.45
2018-04-22T06:27:35.920Z,14.43
2018-04-22T06:28:38.396Z,14.32
2018-04-22T06:29:40.872Z,14.75
2018-04-22T06:30:43.343Z,14.95
2018-04-22T06:31:45.831Z,14.10
2018-04-22T06:32:49.072Z,13.93
2018-04-22T06:33:51.551Z,14.27
2018-04-22T06:34:54.053Z,14.27
2018-04-22T06:35:56.568Z,13.90
2018-04-22T06:36:59.076Z,14.05
2018-04-22T06:38:01.612Z,14.45
2018-04-22T06:39:04.095Z,13.73
2018-04-22T06:40:06.575Z,13.32
2018-04-22T06:41:09.823Z,14.10
2018-04-22T06:42:12.316Z,13.77
2018-04-22T06:43:15.559Z,14.05
2018-04-22T06:44:18.864Z,14.40
2018-04-22T06:45:21.347Z,13.18
2018-04-22T06:46:24.635Z,14.27
2018-04-22T06:47:27.132Z,13.45
2018-04-22T06:48:29.612Z,13.45
2018-04-22T06:49:32.086Z,13.55
2018-04-22T06:50:34.560Z,14.02
2018-04-22T06:51:37.044Z,14.10
2018-04-22T06:52:39.562Z,13.27
2018-04-22T06:53:42.059Z,14.45
2018-04-22T06:54:44.527Z,14.63
2018-04-22T06:55:47.004Z,15.23
2018-04-22T06:56:50.256Z,14.00
2018-04-22T06:57:52.758Z,13.02
2018-04-22T06:58:55.239Z,13.82
2018-04-22T06:59:58.472Z,13.93
2018-04-22T07:01:00.944Z,13.13
2018-04-22T07:02:03.416Z,13.98
2018-04-22T07:03:05.908Z,12.88
2018-04-22T07:04:09.149Z,12.90
2018-04-22T07:05:11.628Z,14.02
2018-04-22T07:06:14.304Z,13.32
2018-04-22T07:07:16.778Z,14.18
2018-04-22T07:08:20.737Z,13.32
2018-04-22T07:09:23.204Z,12.98
2018-04-22T07:10:25.679Z,12.93
2018-04-22T07:11:28.156Z,12.65
2018-04-22T07:12:30.631Z,13.07
2018-04-22T07:13:33.119Z,12.93
2018-04-22T07:14:36.364Z,13.52
2018-04-22T07:15:38.840Z,13.98
2018-04-22T07:16:42.105Z,13.55
2018-04-22T07:17:44.581Z,14.30
2018-04-22T07:18:47.081Z,12.55
2018-04-22T07:19:50.315Z,13.57
2018-04-22T07:20:52.799Z,13.90
2018-04-22T07:21:55.276Z,14.43
2018-04-22T07:22:57.744Z,13.45
2018-04-22T07:24:01.007Z,12.93
2018-04-22T07:25:03.483Z,13.77
2018-04-22T07:26:06.739Z,14.18
2018-04-22T07:27:09.215Z,13.82
2018-04-22T07:28:11.688Z,13.95
2018-04-22T07:29:14.958Z,13.95
2018-04-22T07:30:17.436Z,12.80
2018-04-22T07:31:20.679Z,13.60
2018-04-22T07:32:23.155Z,13.35
2018-04-22T07:33:25.640Z,13.98
2018-04-22T07:34:28.154Z,13.43
2018-04-22T07:35:30.631Z,14.10
2018-04-22T07:36:33.104Z,13.85
2018-04-22T07:37:35.584Z,13.62
2018-04-22T07:38:38.056Z,13.15
2018-04-22T07:39:40.548Z,13.70
2018-04-22T07:40:43.067Z,14.00
2018-04-22T07:41:45.509Z,12.52
2018-04-22T07:42:47.979Z,13.00
2018-04-22T07:43:50.456Z,14.00
2018-04-22T07:44:52.960Z,13.07
2018-04-22T07:45:56.952Z,14.02
2018-04-22T07:46:59.796Z,13.43
2018-04-22T07:48:02.282Z,13.48
2018-04-22T07:49:04.784Z,12.50
2018-04-22T07:50:08.045Z,12.88
2018-04-22T07:51:10.508Z,13.65
2018-04-22T07:52:14.492Z,12.57
2018-04-22T07:53:16.959Z,13.80
2018-04-22T07:54:19.440Z,13.90
2018-04-22T07:55:22.692Z,13.50
2018-04-22T07:56:25.168Z,12.80
2018-04-22T07:57:27.644Z,12.68
2018-04-22T07:58:30.116Z,13.43
2018-04-22T07:59:33.400Z,13.52
2018-04-22T08:00:35.860Z,12.77
2018-04-22T08:01:38.329Z,13.55
2018-04-22T08:02:42.319Z,12.18
2018-04-22T08:03:44.791Z,13.45
2018-04-22T08:04:48.032Z,13.13
2018-04-22T08:05:50.525Z,12.57
2018-04-22T08:06:52.999Z,13.30
2018-04-22T08:07:56.980Z,13.13
2018-04-22T08:08:59.454Z,12.77
2018-04-22T08:10:01.937Z,12.40
2018-04-22T08:11:05.523Z,12.15
2018-04-22T08:12:09.500Z,12.98
2018-04-22T08:13:11.972Z,12.95
2018-04-22T08:14:14.441Z,12.05
2018-04-22T08:15:16.920Z,11.20
2018-04-22T08:16:19.413Z,12.05
2018-04-22T08:17:21.891Z,11.60
2018-04-22T08:18:24.364Z,12.35
2018-04-22T08:19:26.842Z,12.25
2018-04-22T08:20:29.315Z,11.57
2018-04-22T08:21:31.811Z,12.13
2018-04-22T08:22:35.052Z,12.45
2018-04-22T08:23:37.531Z,11.68
2018-04-22T08:24:40.003Z,12.70
2018-04-22T08:25:42.477Z,11.52
2018-04-22T08:26:45.736Z,11.60
2018-04-22T08:27:48.207Z,11.88
2018-04-22T08:28:50.676Z,11.20
2018-04-22T08:29:53.157Z,10.52
2018-04-22T08:30:55.629Z,11.63
2018-04-22T08:31:58.126Z,11.50
2018-04-22T08:33:00.599Z,11.85
2018-04-22T08:34:03.118Z,10.55
2018-04-22T08:35:05.566Z,11.52
2018-04-22T08:36:08.051Z,10.82
2018-04-22T08:37:11.326Z,10.38
2018-04-22T08:38:13.801Z,10.98
2018-04-22T08:39:16.276Z,10.85
2018-04-22T08:40:19.519Z,10.50
2018-04-22T08:41:22.003Z,11.40
2018-04-22T08:42:24.527Z,10.13
2018-04-22T08:43:27.003Z,10.90
2018-04-22T08:44:29.476Z,9.85
2018-04-22T08:45:31.957Z,10.95
2018-04-22T08:46:34.433Z,10.65
2018-04-22T08:47:37.687Z,9.35
2018-04-22T08:48:40.159Z,10.48
2018-04-22T08:49:42.640Z,10.07
2018-04-22T08:50:45.883Z,11.00
2018-04-22T08:51:48.368Z,10.30
2018-04-22T08:52:50.878Z,10.48
2018-04-22T08:53:53.352Z,11.05
2018-04-22T08:54:55.828Z,10.57
2018-04-22T08:55:58.303Z,10.40
2018-04-22T08:57:00.776Z,11.63
2018-04-22T08:58:03.276Z,12.50
2018-04-22T08:59:05.755Z,19.25
2018-04-22T09:00:09.004Z,14.82
2018-04-22T09:01:11.484Z,11.10
2018-04-22T09:02:14.742Z,9.70
2018-04-22T09:03:17.535Z,9.80
2018-04-22T09:04:20.012Z,9.48
2018-04-22T09:05:22.512Z,9.35
2018-04-22T09:06:24.980Z,9.98
2018-04-22T09:07:27.464Z,10.23
2018-04-22T09:08:29.948Z,8.55
2018-04-22T09:09:32.424Z,8.90
2018-04-22T09:10:34.899Z,10.73
2018-04-22T09:11:37.413Z,9.50
2018-04-22T09:12:39.880Z,8.13
2018-04-22T09:13:42.367Z,8.43
2018-04-22T09:14:44.844Z,8.98
2018-04-22T09:15:47.315Z,8.65
2018-04-22T09:16:50.560Z,8.95
2018-04-22T09:17:53.032Z,8.73
2018-04-22T09:18:55.543Z,8.45
2018-04-22T09:19:58.780Z,8.50
2018-04-22T09:21:01.255Z,8.90
2018-04-22T09:22:03.813Z,8.25
2018-04-22T09:23:06.212Z,8.52
2018-04-22T09:24:09.795Z,7.43
2018-04-22T09:25:12.262Z,8.23
2018-04-22T09:26:14.731Z,8.23
2018-04-22T09:27:17.203Z,7.78
2018-04-22T09:28:21.164Z,8.07
2018-04-22T09:29:23.653Z,7.68
2018-04-22T09:30:26.141Z,8.27
2018-04-22T09:31:29.376Z,8.15
2018-04-22T09:32:31.872Z,8.48
2018-04-22T09:33:35.109Z,7.97
2018-04-22T09:34:37.593Z,7.55
2018-04-22T09:35:40.071Z,8.30
2018-04-22T09:36:42.545Z,7.57
2018-04-22T09:37:45.014Z,7.25
2018-04-22T09:38:48.255Z,6.95
2018-04-22T09:39:50.744Z,6.78
2018-04-22T09:40:53.211Z,6.28
2018-04-22T09:41:55.705Z,7.03
2018-04-22T09:42:58.179Z,6.50
2018-04-22T09:44:00.648Z,6.65
2018-04-22T09:45:03.138Z,6.40
2018-04-22T09:46:05.609Z,6.50
2018-04-22T09:47:08.080Z,5.70
2018-04-22T09:48:10.548Z,6.43
2018-04-22T09:49:13.032Z,5.97
2018-04-22T09:50:15.535Z,5.87
2018-04-22T09:51:17.998Z,6.68
2018-04-22T09:52:20.468Z,6.12
2018-04-22T09:53:22.960Z,6.20
2018-04-22T09:54:25.442Z,5.78
2018-04-22T09:55:27.931Z,6.00
2018-04-22T09:56:31.166Z,5.90
2018-04-22T09:57:33.635Z,5.97
2018-04-22T09:58:36.108Z,7.40
2018-04-22T09:59:38.594Z,9.18
2018-04-22T10:00:41.075Z,7.78
2018-04-22T10:01:44.315Z,12.60
2018-04-22T10:02:48.605Z,7.10
2018-04-22T10:03:51.079Z,7.00
2018-04-22T10:04:53.582Z,5.90
2018-04-22T10:06:01.940Z,5.90
2018-04-22T10:07:04.407Z,6.57
2018-04-22T10:08:06.883Z,6.00
2018-04-22T10:09:09.361Z,8.43
2018-04-22T10:10:11.832Z,6.03
2018-04-22T10:11:15.089Z,6.18
2018-04-22T10:12:17.567Z,7.10
2018-04-22T10:13:20.040Z,5.85
2018-04-22T10:14:22.521Z,5.78
2018-04-22T10:15:25.777Z,6.05
2018-04-22T10:16:28.569Z,5.60
2018-04-22T10:17:31.834Z,6.25
2018-04-22T10:18:34.321Z,8.23
2018-04-22T10:19:37.556Z,7.60
2018-04-22T10:20:40.032Z,9.50
2018-04-22T10:21:42.528Z,7.00
2018-04-22T10:22:45.768Z,6.72
2018-04-22T10:23:48.260Z,6.72
2018-04-22T10:24:50.735Z,6.37
2018-04-22T10:25:53.205Z,5.55
2018-04-22T10:26:56.459Z,6.07
2018-04-22T10:27:58.932Z,7.22
2018-04-22T10:29:01.404Z,5.57
2018-04-22T10:30:03.880Z,6.53
2018-04-22T10:31:07.126Z,7.75
2018-04-22T10:32:09.645Z,5.75
2018-04-22T10:33:12.880Z,6.78
2018-04-22T10:34:15.357Z,10.95
2018-04-22T10:35:17.823Z,7.10
2018-04-22T10:36:21.072Z,6.03
2018-04-22T10:37:23.568Z,6.68
2018-04-22T10:38:26.040Z,9.93
2018-04-22T10:39:28.517Z,7.75
2018-04-22T10:40:30.987Z,5.97
2018-04-22T10:41:34.219Z,5.72
2018-04-22T10:42:36.707Z,5.32
2018-04-22T10:43:39.180Z,5.75
2018-04-22T10:44:41.655Z,5.30
2018-04-22T10:45:44.900Z,6.12
2018-04-22T10:46:47.855Z,4.87
2018-04-22T10:47:50.299Z,5.20
2018-04-22T10:48:53.531Z,5.60
2018-04-22T10:49:56.005Z,4.55
2018-04-22T10:50:58.487Z,6.35
2018-04-22T10:52:02.466Z,5.60
2018-04-22T10:53:04.959Z,5.70
2018-04-22T10:54:08.200Z,6.15
2018-04-22T10:55:10.695Z,5.30
2018-04-22T10:56:13.935Z,5.47
2018-04-22T10:57:16.411Z,9.32
2018-04-22T10:58:19.164Z,6.95
2018-04-22T10:59:21.639Z,10.05
2018-04-22T11:00:24.116Z,7.55
2018-04-22T11:01:26.592Z,7.72
2018-04-22T11:02:29.068Z,6.10
2018-04-22T11:03:31.566Z,8.95
2018-04-22T11:04:34.853Z,5.18
2018-04-22T11:05:38.059Z,5.20
2018-04-22T11:06:40.540Z,4.32
2018-04-22T11:07:43.011Z,9.68
2018-04-22T11:08:45.519Z,5.72
2018-04-22T11:09:48.764Z,5.40
2018-04-22T11:10:51.236Z,6.50
2018-04-22T11:11:53.711Z,8.75
2018-04-22T11:12:56.962Z,8.35
2018-04-22T11:13:59.460Z,4.80
2018-04-22T11:15:03.440Z,5.30
2018-04-22T11:16:05.925Z,7.68
2018-04-22T11:17:09.180Z,7.50
2018-04-22T11:18:11.692Z,11.32
2018-04-22T11:19:14.965Z,7.00
2018-04-22T11:20:18.208Z,27.08
2018-04-22T11:21:20.679Z,9.75
2018-04-22T11:22:23.163Z,15.50
2018-04-22T11:23:26.420Z,15.70
2018-04-22T11:24:29.226Z,9.02
2018-04-22T11:25:32.467Z,7.82
2018-04-22T11:26:34.947Z,10.82
2018-04-22T11:27:37.428Z,7.90
2018-04-22T11:28:40.668Z,4.53
2018-04-22T11:29:43.159Z,4.97
2018-04-22T11:30:45.636Z,10.63
2018-04-22T11:31:48.113Z,10.90
2018-04-22T11:32:51.360Z,13.43
2018-04-22T11:33:53.835Z,5.40
2018-04-22T11:34:56.323Z,4.40
2018-04-22T11:35:59.570Z,5.62
2018-04-22T11:37:02.045Z,7.97
2018-04-22T11:38:04.528Z,23.62
2018-04-22T11:39:07.771Z,11.45
2018-04-22T11:40:10.267Z,12.80
2018-04-22T11:41:12.744Z,9.75
2018-04-22T11:42:16.720Z,5.60
2018-04-22T11:43:19.215Z,9.32
2018-04-22T11:44:22.464Z,6.43
2018-04-22T11:45:24.975Z,8.25
2018-04-22T11:46:28.213Z,5.35
2018-04-22T11:47:30.687Z,6.45
2018-04-22T11:48:33.172Z,5.37
2018-04-22T11:49:36.417Z,5.95
2018-04-22T11:50:38.911Z,5.40
2018-04-22T11:51:41.389Z,5.80
2018-04-22T11:52:44.635Z,5.75
2018-04-22T11:53:47.120Z,6.12
2018-04-22T11:54:49.593Z,6.18
2018-04-22T11:55:52.085Z,5.22
2018-04-22T11:56:54.565Z,8.07
2018-04-22T11:57:57.040Z,10.88
2018-04-22T11:58:59.511Z,8.73
2018-04-22T12:00:02.023Z,7.45
2018-04-22T12:01:04.807Z,7.22
2018-04-22T12:02:08.067Z,5.40
2018-04-22T12:03:10.532Z,5.87
2018-04-22T12:04:13.771Z,4.40
2018-04-22T12:05:16.239Z,4.65
2018-04-22T12:06:18.728Z,4.65
2018-04-22T12:07:21.200Z,5.05
2018-04-22T12:08:23.676Z,12.50
2018-04-22T12:09:26.924Z,8.02
2018-04-22T12:10:29.395Z,8.20
2018-04-22T12:11:31.883Z,7.22
2018-04-22T12:12:35.863Z,7.07
2018-04-22T12:13:38.344Z,8.15
2018-04-22T12:14:42.369Z,6.32
2018-04-22T12:15:44.816Z,6.95
2018-04-22T12:16:47.330Z,8.63
2018-04-22T12:17:49.799Z,7.13
2018-04-22T12:18:52.277Z,4.70
2018-04-22T12:19:54.757Z,5.10
2018-04-22T12:20:57.252Z,7.80
2018-04-22T12:22:00.513Z,7.95
2018-04-22T12:23:03.757Z,5.55
2018-04-22T12:24:06.243Z,4.37
2018-04-22T12:25:08.721Z,4.47
2018-04-22T12:26:11.204Z,5.03
2018-04-22T12:27:14.479Z,5.70
2018-04-22T12:28:17.723Z,5.10
2018-04-22T12:29:20.191Z,4.90
2018-04-22T12:30:22.675Z,5.72
2018-04-22T12:31:25.156Z,6.05
2018-04-22T12:32:29.395Z,5.15
2018-04-22T12:33:31.873Z,4.95
2018-04-22T12:34:34.344Z,4.15
2018-04-22T12:35:36.815Z,7.47
2018-04-22T12:36:39.323Z,7.20
2018-04-22T12:37:41.811Z,4.93
2018-04-22T12:38:45.053Z,7.50
2018-04-22T12:39:47.531Z,5.62
2018-04-22T12:40:50.769Z,5.03
2018-04-22T12:41:53.244Z,9.07
2018-04-22T12:42:55.731Z,11.30
2018-04-22T12:43:58.217Z,17.73
2018-04-22T12:45:00.692Z,37.38
2018-04-22T12:46:03.939Z,38.53
2018-04-22T12:47:06.420Z,8.68
2018-04-22T12:48:09.684Z,6.50
2018-04-22T12:49:12.172Z,10.70
2018-04-22T12:50:15.415Z,10.20
2018-04-22T12:51:17.884Z,5.18
2018-04-22T12:52:20.364Z,4.87
2018-04-22T12:53:22.844Z,5.25
2018-04-22T12:54:25.324Z,5.50
2018-04-22T12:55:28.555Z,4.90
2018-04-22T12:56:31.040Z,6.15
2018-04-22T12:57:33.519Z,4.32
2018-04-22T12:58:36.788Z,18.15
2018-04-22T12:59:39.260Z,6.10
2018-04-22T13:00:43.248Z,49.42
2018-04-22T13:01:50.068Z,12.90
2018-04-22T13:02:53.347Z,10.55
2018-04-22T13:03:55.828Z,4.80
2018-04-22T13:04:58.300Z,4.90
2018-04-22T13:06:00.819Z,6.53
2018-04-22T13:07:03.311Z,4.85
2018-04-22T13:08:05.803Z,6.95
2018-04-22T13:09:08.320Z,6.53
2018-04-22T13:10:11.561Z,6.30
2018-04-22T13:11:14.036Z,7.37
2018-04-22T13:12:16.552Z,6.03
2018-04-22T13:13:19.043Z,5.10
2018-04-22T13:14:21.520Z,4.28
2018-04-22T13:15:23.991Z,5.65
2018-04-22T13:16:26.480Z,7.32
2018-04-22T13:17:29.720Z,5.43
2018-04-22T13:18:32.209Z,7.07
2018-04-22T13:19:34.680Z,7.72
2018-04-22T13:20:37.184Z,6.55
2018-04-22T13:21:40.408Z,7.85
2018-04-22T13:22:42.879Z,6.95
2018-04-22T13:23:45.379Z,6.03
2018-04-22T13:24:48.618Z,5.57
2018-04-22T13:25:51.092Z,5.65
2018-04-22T13:26:53.573Z,5.25
2018-04-22T13:27:56.046Z,5.15
2018-04-22T13:29:00.051Z,4.68
2018-04-22T13:30:03.289Z,5.72
2018-04-22T13:31:05.760Z,5.53
2018-04-22T13:32:08.231Z,6.00
2018-04-22T13:33:10.704Z,5.55
2018-04-22T13:34:13.192Z,5.75
2018-04-22T13:35:16.456Z,5.87
2018-04-22T13:36:18.928Z,5.87
2018-04-22T13:37:21.393Z,5.10
2018-04-22T13:38:23.886Z,4.40
2018-04-22T13:39:27.132Z,5.32
2018-04-22T13:40:30.372Z,5.10
2018-04-22T13:41:32.848Z,6.62
2018-04-22T13:42:35.317Z,5.93